Latest Coastal Weather Observations for Carnarvon

IDW60701

Issued at 2:25 am WST Tuesday 29 July 2014 (issued every 10 minutes, with the page automatically refreshed every 10 minutes)

About coastal observations | Map of coastal stations | Coastal observations for WA | Marine services | Other Formats
Station Details ID: 006011 Name: CARNARVON AIRPORT Lat: -24.89 Lon: 113.67 Height: 4.0 m
Data from the previous 72 hours. | See also: Recent months at Carnarvon
Date/Time
WST
Temp

°C
Wind Pressure Rain
since 9am
mm
Weather Cloud Vis
km
Sea
Height
m
Swell
Dir
 
Speed
knots
Gust
knots
hPa Trend Height
m
Period
s
Dir
29/02:00am 15.3 SSE 13 19 1022.0 - 0.0 - - 10 - - - -
29/01:30am 15.9 SSE 16 21 1022.0 - 0.0 - - 10 - - - -
29/01:00am 16.2 SSE 15 21 1022.3 - 0.0 - - 10 - - - -
29/12:30am 16.7 SSE 15 22 1022.3 - 0.0 - - 10 - - - -
29/12:00am 16.8 SSE 14 18 1022.5 - 0.0 - - 10 - - - -
 
Date/Time
WST
Temp

°C
Wind Pressure Rain
since 9am
mm
Weather Cloud Vis
km
Sea
Height
m
Swell
Dir
 
Speed
knots
Gust
knots
hPa Trend Height
m
Period
s
Dir
28/11:30pm 16.8 SSE 15 19 1022.8 - 0.0 - - 10 - - - -
28/11:00pm 17.1 SSE 14 19 1022.8 - 0.0 - - 10 - - - -
28/10:30pm 17.3 S 13 18 1022.9 - 0.0 - - 10 - - - -
28/10:00pm 17.2 SSE 14 18 1022.7 - 0.0 - - 10 - - - -
28/09:30pm 17.6 S 13 18 1022.5 - 0.0 - - 10 - - - -
28/09:00pm 17.7 S 13 18 1022.4 - 0.0 - - 10 - - - -
28/08:30pm 17.7 S 12 16 1022.2 - 0.0 - - 10 - - - -
28/08:00pm 17.9 S 11 15 1022.0 - 0.0 - - 10 - - - -
28/07:30pm 17.9 S 11 13 1022.0 - 0.0 - - 10 - - - -
28/07:00pm 18.0 S 11 13 1021.9 - 0.0 - - 10 - - - -
28/06:30pm 18.5 S 12 16 1021.7 - 0.0 - - 10 - - - -
28/06:00pm 19.1 S 13 17 1021.5 - 0.0 - - 10 - - - -
28/05:30pm 19.9 S 15 18 1021.3 - 0.0 - - 10 - - - -
28/05:00pm 20.4 S 15 21 1021.2 - 0.0 - - 10 - - - -
28/04:30pm 20.6 S 16 21 1021.1 - 0.0 - - 10 - - - -
28/04:00pm 21.4 S 17 22 1021.0 - 0.0 - - 10 - - - -
28/03:30pm 20.9 S 19 24 1021.0 - 0.0 - - 10 - - - -
28/03:00pm 20.5 S 19 24 1021.0 - 0.0 - - 10 - - - -
28/02:30pm 20.7 S 19 24 1021.2 - 0.0 - - 10 - - - -
28/02:00pm 20.9 S 19 25 1021.4 - 0.0 - - 10 - - - -
28/01:30pm 21.4 S 18 23 1021.5 - 0.0 - - 10 - - - -
28/01:00pm 21.0 S 13 21 1022.0 - 0.0 - - 10 - - - -
28/12:30pm 23.2 SE 13 20 1022.5 - 0.0 - - 10 - - - -
28/12:00pm 22.7 SSE 15 20 1022.9 - 0.0 - - 10 - - - -
28/11:30am 22.4 SE 15 19 1023.4 - 0.0 - - 10 - - - -
28/11:00am 21.9 ESE 15 22 1023.8 - 0.0 - - 10 - - - -
28/10:30am 20.8 SE 17 21 1024.4 - 0.0 - - 10 - - - -
28/10:00am 20.1 SE 18 23 1024.6 - 0.0 - - 10 - - - -
28/09:30am 19.0 SE 16 22 1024.4 - 0.0 - - 10 - - - -
28/09:00am 18.0 SE 15 19 1024.4 R 0.0 Fine Mostly clear 30 - - - -
28/08:30am 16.7 SE 14 19 1024.2 - 0.0 - - 10 - - - -
28/08:00am 15.6 SE 13 17 1024.1 - 0.0 - - 10 - - - -
28/07:30am 14.5 SSE 12 16 1023.9 - 0.0 - - 10 - - - -
28/07:00am 14.4 SSE 13 17 1023.4 - 0.0 - - 10 - - - -
28/06:30am 14.7 SSE 14 18 1023.2 - 0.0 - - 10 - - - -
28/06:00am 15.2 SSE 15 21 1023.0 - 0.0 - - 10 - - - -
28/05:30am 15.4 SSE 15 19 1022.8 - 0.0 - - 10 - - - -
28/05:00am 15.3 SSE 13 17 1022.7 - 0.0 - - 10 - - - -
28/04:30am 15.4 SSE 11 15 1022.5 - 0.0 - - 10 - - - -
28/04:00am 15.5 SSE 11 15 1022.4 - 0.0 - Partly cloudy 10 - - - -
28/03:30am 15.9 SSE 12 16 1022.5 - 0.0 - - 10 - - - -
28/03:00am 15.5 SSE 10 13 1022.7 - 0.0 - - 10 - - - -
28/02:30am 15.2 SSE 9 11 1022.7 - 0.0 - - 10 - - - -
28/02:00am 15.3 SSE 8 11 1022.6 - 0.0 - - 10 - - - -
28/01:30am 15.7 SSE 11 14 1022.9 - 0.0 - - 10 - - - -
28/01:00am 15.7 SSE 8 10 1022.8 - 0.0 - - 10 - - - -
28/12:30am 15.5 SSE 8 10 1023.0 - 0.0 - - 10 - - - -
28/12:00am 16.6 SSE 10 13 1023.2 - 0.0 - - 10 - - - -
 
Date/Time
WST
Temp

°C
Wind Pressure Rain
since 9am
mm
Weather Cloud Vis
km
Sea
Height
m
Swell
Dir
 
Speed
knots
Gust
knots
hPa Trend Height
m
Period
s
Dir
27/11:30pm 16.9 SSE 12 17 1023.2 - 0.0 - - 10 - - - -
27/11:00pm 17.0 SSE 11 15 1023.1 - 0.0 - - 10 - - - -
27/10:30pm 17.0 S 11 14 1023.2 - 0.0 - - 10 - - - -
27/10:00pm 17.2 S 11 15 1023.1 - 0.0 - - 10 - - - -
27/09:30pm 17.5 S 13 17 1022.9 - 0.0 - - 10 - - - -
27/09:00pm 17.3 S 7 10 1022.9 - 0.0 - - 10 - - - -
27/08:30pm 17.5 S 7 9 1022.8 - 0.0 - - 10 - - - -
27/08:00pm 17.8 S 7 10 1022.8 - 0.0 - - 10 - - - -
27/07:30pm 18.2 S 9 11 1022.4 - 0.0 - - 10 - - - -
27/07:00pm 18.5 S 10 13 1022.1 - 0.0 - Partly cloudy 10 - - - -
27/06:30pm 18.6 S 8 10 1021.8 - 0.0 - Partly cloudy 10 - - - -
27/06:00pm 18.8 S 11 16 1021.5 - 0.0 - - 10 - - - -
27/05:30pm 19.3 S 13 16 1021.3 - 0.0 - - 10 - - - -
27/05:00pm 19.6 S 14 17 1021.2 - 0.0 - - 10 - - - -
27/04:30pm 20.1 SSW 13 17 1021.2 - 0.0 - - 10 - - - -
27/04:00pm 20.2 SSW 14 18 1020.9 - 0.0 - - 10 - - - -
27/03:30pm 20.5 SSW 15 17 1020.9 - 0.0 - - 10 - - - -
27/03:00pm 20.6 SSW 14 17 1020.7 - 0.0 - - 10 - - - -
27/02:30pm 20.5 S 14 16 1020.6 - 0.0 - - 10 - - - -
27/02:00pm 20.5 S 13 17 1020.7 - 0.0 - - 10 - - - -
27/01:30pm 21.0 S 14 18 1021.0 - 0.0 - Partly cloudy 10 - - - -
27/01:00pm 20.4 S 15 18 1021.3 - 0.0 - Partly cloudy 10 - - - -
27/12:30pm 21.3 SSW 11 15 1021.9 - 0.0 - Partly cloudy 10 - - - -
27/12:00pm 21.4 SSW 10 13 1022.2 - 0.0 - Cloudy 10 - - - -
27/11:30am 20.3 SSW 10 12 1022.5 - 0.0 - Partly cloudy 10 - - - -
27/11:00am 22.3 S 7 10 1023.0 - 0.0 - Partly cloudy 10 - - - -
27/10:30am 21.7 SSE 6 9 1023.5 - 0.0 - Partly cloudy 10 - - - -
27/10:00am 21.4 ESE 6 8 1023.6 - 0.0 - - 10 - - - -
27/09:30am 20.7 E 8 9 1023.6 - 0.0 - - 10 - - - -
27/09:00am 19.3 E 7 8 1023.5 - 0.0 - - 10 - - - -
27/08:30am 17.8 E 4 5 1023.3 - 0.0 - - 10 - - - -
27/08:00am 14.6 ENE 4 5 1022.9 - 0.0 - - 10 - - - -
27/07:30am 11.0 ENE 7 7 1022.5 - 0.0 - - 10 - - - -
27/07:00am 9.9 ENE 5 6 1022.2 - 0.0 - - 10 - - - -
27/06:30am 10.6 ENE 5 5 1022.0 - 0.0 - - 10 - - - -
27/06:00am 10.3 ENE 6 6 1021.7 - 0.0 - - 10 - - - -
27/05:30am 11.0 CALM 0 0 1021.6 - 0.0 - - 10 - - - -
27/05:00am 10.9 CALM 0 0 1021.4 - 0.0 - - 10 - - - -
27/04:30am 11.1 CALM 0 0 1021.6 - 0.0 - - 10 - - - -
27/04:00am 11.2 CALM 0 0 1021.7 - 0.0 - - 10 - - - -
27/03:30am 10.7 CALM 0 0 1021.7 - 0.0 - - 10 - - - -
27/03:00am 11.5 CALM 0 0 1021.7 - 0.0 - - 10 - - - -
27/02:30am 11.9 CALM 0 0 1021.7 - 0.0 - - 10 - - - -
27/02:00am 12.3 CALM 0 0 1021.8 - 0.0 - - 10 - - - -
27/01:30am 12.3 CALM 0 0 1021.9 - 0.0 - - 10 - - - -
27/01:00am 12.4 CALM 0 0 1022.0 - 0.0 - - 10 - - - -
27/12:30am 12.6 CALM 0 0 1022.1 - 0.0 - - 10 - - - -
27/12:00am 11.8 CALM 0 0 1022.1 - 0.0 - - 10 - - - -
 
Date/Time
WST
Temp

°C
Wind Pressure Rain
since 9am
mm
Weather Cloud Vis
km
Sea
Height
m
Swell
Dir
 
Speed
knots
Gust
knots
hPa Trend Height
m
Period
s
Dir
26/11:30pm 12.5 CALM 0 0 1022.1 - 0.0 - - 10 - - - -
26/11:00pm 13.1 CALM 0 0 1022.1 - 0.0 - - 10 - - - -
26/10:30pm 12.7 CALM 0 0 1022.3 - 0.0 - - 10 - - - -
26/10:00pm 12.9 SW 2 3 1022.2 - 0.0 - - 10 - - - -
26/09:30pm 15.5 SW 5 5 1022.1 - 0.0 - - 10 - - - -
26/09:00pm 17.5 SW 6 6 1022.1 - 0.0 - - 10 - - - -
26/08:30pm 17.2 SW 6 7 1021.9 - 0.0 - - 10 - - - -
26/08:00pm 17.6 WSW 6 7 1021.8 - 0.0 - - 10 - - - -
26/07:30pm 16.9 WSW 3 5 1021.5 - 0.0 - - 10 - - - -
26/07:00pm 17.6 WSW 3 4 1021.2 - 0.0 - - 10 - - - -
26/06:30pm 18.5 W 4 5 1020.9 - 0.0 - - 10 - - - -
26/06:00pm 20.1 WSW 5 7 1020.6 - 0.0 - - 10 - - - -
26/05:30pm 21.2 WSW 8 9 1020.6 - 0.0 - - 10 - - - -
26/05:00pm 22.0 WSW 7 10 1020.6 - 0.0 - - 10 - - - -
26/04:30pm 22.3 WSW 8 9 1020.4 - 0.0 - - 10 - - - -
26/04:00pm 22.6 SW 8 11 1020.2 - 0.0 - - 10 - - - -
26/03:30pm 23.0 SSW 8 10 1020.3 - 0.0 - Partly cloudy 10 - - - -
26/03:00pm 22.4 SW 10 12 1020.5 - 0.0 - Mostly cloudy 10 - - - -
26/02:30pm 22.3 WSW 12 15 1020.6 - 0.0 - Partly cloudy 10 - - - -
26/02:00pm 23.2 WSW 9 12 1021.0 - 0.0 - Cloudy 10 - - - -
26/01:30pm 22.6 SW 9 12 1021.3 - 0.0 - Partly cloudy 10 - - - -
26/01:00pm 22.8 WSW 7 10 1021.8 - 0.0 - Partly cloudy 10 - - - -
26/12:30pm 22.8 WNW 8 12 1022.2 - 0.0 - Partly cloudy 10 - - - -
26/12:00pm 22.8 NW 9 11 1022.4 - 0.0 - Cloudy 10 - - - -
26/11:30am 23.6 NW 10 13 1022.4 - 0.0 - Cloudy 10 - - - -
26/11:00am 22.8 NW 9 12 1022.6 - 0.0 - Partly cloudy 10 - - - -
26/10:30am 22.3 N 7 11 1022.7 - 0.0 - Partly cloudy 10 - - - -
26/10:00am 21.4 N 7 9 1022.9 - 0.0 - Cloudy 10 - - - -
26/09:30am 19.7 N 7 9 1022.7 - 0.0 - Partly cloudy 10 - - - -
26/09:00am 18.1 NNE 7 9 1022.3 - 0.0 - Mostly cloudy 10 - - - -
26/08:30am 14.7 NNE 6 8 1022.0 - 0.0 - Partly cloudy 10 - - - -
26/08:00am 13.5 NE 5 7 1021.8 - 0.0 - Cloudy 10 - - - -
26/07:30am 11.7 NE 6 7 1021.5 - 0.0 - Partly cloudy 10 - - - -
26/07:00am 10.0 NE 6 7 1021.2 - 0.0 - Partly cloudy 10 - - - -
26/06:30am 10.7 NE 5 7 1020.9 - 0.0 - Partly cloudy 10 - - - -
26/06:00am 10.0 NE 6 7 1020.7 - 0.0 - Mostly cloudy 10 - - - -
26/05:30am 9.1 NE 7 7 1020.6 - 0.0 - Partly cloudy 10 - - - -
26/05:00am 9.2 NE 6 7 1020.4 - 0.0 - - 10 - - - -
26/04:30am 10.2 NE 8 9 1020.3 - 0.0 - - 10 - - - -
26/04:00am 9.4 NE 5 7 1020.2 - 0.0 - - 10 - - - -
26/03:30am 9.1 NNE 7 8 1020.2 - 0.0 - - 10 - - - -
26/03:00am 10.1 NNE 6 6 1020.1 - 0.0 - - 10 - - - -
26/02:30am 10.8 NNE 5 6 1020.2 - 0.0 - - 10 - - - -

Other Formats:

Comma delimited format used in spreadsheet applications
http://www.bom.gov.au/fwo/IDW60701/IDW60701.94300.axf

JavaScript Object Notation format (JSON) in row-major order
http://www.bom.gov.au/fwo/IDW60701/IDW60701.94300.json